Time;durP1;ratioP1;P1;durP2;ratioP2;P2;SDS_P1;SDS_P2;PMS_P1;PMS_P2;Temp;Humidity;BMP_temperature;BMP_pressure;BME280_temperature;BME280_humidity;BME280_pressure;Samples;Min_cycle;Max_cycle;Signal;HPM_P1;HPM_P2
2021/05/13 00:00:45;;;;;;;6.00;5.33;;;12.00;99.90;;;;;;5139075;27;20743;-82
2021/05/13 00:03:11;;;;;;;5.43;4.27;;;12.10;99.90;;;;;;5140315;27;20387;-83
2021/05/13 00:05:37;;;;;;;5.43;4.70;;;12.10;99.90;;;;;;5139779;28;20459;-83
2021/05/13 00:08:04;;;;;;;5.57;4.93;;;11.90;99.90;;;;;;5120734;28;20870;-83
2021/05/13 00:10:30;;;;;;;5.50;4.57;;;11.70;99.90;;;;;;5138716;28;20309;-83
2021/05/13 00:13:01;;;;;;;6.03;5.43;;;11.90;99.90;;;;;;5120482;28;20400;-83
2021/05/13 00:15:38;;;;;;;4.97;4.23;;;12.00;99.90;;;;;;5138816;28;20389;-82
2021/05/13 00:18:04;;;;;;;8.20;4.73;;;12.00;99.90;;;;;;5139576;28;20395;-83
2021/05/13 00:20:34;;;;;;;4.87;4.30;;;12.00;99.90;;;;;;5138496;28;20420;-83
2021/05/13 00:23:00;;;;;;;6.17;5.00;;;12.00;99.90;;;;;;5139014;28;20490;-83
2021/05/13 00:25:28;;;;;;;4.73;4.40;;;12.00;99.90;;;;;;5139015;28;20415;-82
2021/05/13 00:27:54;;;;;;;7.43;5.37;;;12.00;99.90;;;;;;5121155;28;20406;-83
2021/05/13 00:30:22;;;;;;;6.43;5.37;;;11.90;99.90;;;;;;5139385;28;20441;-83
2021/05/13 00:32:49;;;;;;;5.50;5.10;;;11.90;99.90;;;;;;5121367;28;20413;-83
2021/05/13 00:35:18;;;;;;;7.53;5.70;;;12.00;99.90;;;;;;5140106;27;20402;-83
2021/05/13 00:37:45;;;;;;;8.07;5.93;;;11.90;99.90;;;;;;5143025;27;20392;-83
2021/05/13 00:40:13;;;;;;;10.80;5.57;;;11.90;99.90;;;;;;5143090;27;20395;-83
2021/05/13 00:42:40;;;;;;;6.97;5.63;;;11.90;99.90;;;;;;5143600;27;20742;-83
2021/05/13 00:45:08;;;;;;;6.10;5.60;;;11.90;99.90;;;;;;5143150;27;20840;-83
2021/05/13 00:47:37;;;;;;;5.67;5.17;;;12.00;99.90;;;;;;5143321;27;20394;-83
2021/05/13 00:50:05;;;;;;;7.20;5.77;;;12.00;99.90;;;;;;5142960;27;20884;-83
2021/05/13 00:52:33;;;;;;;7.80;7.07;;;12.10;99.90;;;;;;5143533;27;20387;-83
2021/05/13 00:54:59;;;;;;;11.43;7.70;;;12.10;99.90;;;;;;5124430;27;20401;-83
2021/05/13 00:57:26;;;;;;;9.03;7.80;;;12.10;99.90;;;;;;5143697;27;20394;-83
2021/05/13 00:59:58;;;;;;;10.73;8.10;;;12.00;99.90;;;;;;5145490;27;20398;-83
2021/05/13 01:02:24;;;;;;;9.43;8.37;;;12.00;99.90;;;;;;5147373;27;20723;-82
2021/05/13 01:04:49;;;;;;;12.33;9.13;;;12.00;99.90;;;;;;5107543;27;20486;-83
2021/05/13 01:07:15;;;;;;;12.90;9.43;;;11.90;99.90;;;;;;5142855;27;20190;-82
2021/05/13 01:09:41;;;;;;;10.80;8.20;;;12.00;99.90;;;;;;5143060;27;20189;-83
2021/05/13 01:12:12;;;;;;;9.90;8.20;;;12.00;99.90;;;;;;5142956;27;20189;-83
2021/05/13 01:14:42;;;;;;;10.57;9.20;;;11.90;99.90;;;;;;5142601;27;20158;-83
2021/05/13 01:17:19;;;;;;;11.70;9.80;;;11.90;99.90;;;;;;5142574;27;20389;-83
2021/05/13 01:19:55;;;;;;;13.57;9.13;;;11.90;99.90;;;;;;5125992;27;20379;-83
2021/05/13 01:22:23;;;;;;;11.80;9.73;;;12.00;99.90;;;;;;5143062;27;20772;-83
2021/05/13 01:24:50;;;;;;;12.00;10.37;;;12.00;99.90;;;;;;5142669;27;20395;-83
2021/05/13 01:27:17;;;;;;;13.97;9.20;;;12.00;99.90;;;;;;5123419;27;20743;-83
2021/05/13 01:29:46;;;;;;;10.33;9.33;;;12.00;99.90;;;;;;5123792;27;20487;-83
2021/05/13 01:32:13;;;;;;;12.60;10.90;;;12.00;99.90;;;;;;5142058;27;20739;-83
2021/05/13 01:34:39;;;;;;;11.93;10.77;;;12.00;99.90;;;;;;5144630;27;20386;-83
2021/05/13 01:37:04;;;;;;;10.97;9.37;;;12.00;99.90;;;;;;5130183;27;20398;-83
2021/05/13 01:39:30;;;;;;;12.63;9.43;;;11.90;99.90;;;;;;5150877;27;20166;-83
2021/05/13 01:41:56;;;;;;;13.27;10.83;;;11.80;99.90;;;;;;5151858;27;20469;-83
2021/05/13 01:44:22;;;;;;;11.83;9.80;;;11.70;99.90;;;;;;5119034;27;20430;-83
2021/05/13 01:46:48;;;;;;;17.00;11.30;;;11.80;99.90;;;;;;5155024;27;20180;-82
2021/05/13 01:49:19;;;;;;;12.57;9.87;;;11.80;99.90;;;;;;5155921;27;20252;-82
2021/05/13 01:51:45;;;;;;;13.50;9.23;;;11.80;99.90;;;;;;5154889;27;20221;-83
2021/05/13 01:54:11;;;;;;;11.50;10.03;;;11.80;99.90;;;;;;5117061;27;20870;-83
2021/05/13 01:56:36;;;;;;;11.17;9.97;;;11.80;99.90;;;;;;5151001;27;20390;-83
2021/05/13 01:59:03;;;;;;;11.27;9.70;;;11.90;99.90;;;;;;5147949;27;20387;-81
2021/05/13 02:01:29;;;;;;;12.97;10.00;;;11.80;99.90;;;;;;5139846;27;20311;-81
2021/05/13 02:03:55;;;;;;;12.80;9.43;;;11.90;99.90;;;;;;5148962;27;20391;-83
2021/05/13 02:06:21;;;;;;;11.80;9.50;;;11.90;99.90;;;;;;5150055;27;20403;-82
2021/05/13 02:08:47;;;;;;;13.20;9.67;;;11.90;99.90;;;;;;5154958;27;20479;-82
2021/05/13 02:11:12;;;;;;;11.63;8.60;;;11.80;99.90;;;;;;5154993;27;20165;-83
2021/05/13 02:13:38;;;;;;;13.53;9.47;;;11.80;99.90;;;;;;5137390;27;20173;-83
2021/05/13 02:16:04;;;;;;;13.70;10.73;;;11.80;99.90;;;;;;5161580;27;20165;-83
2021/05/13 02:18:31;;;;;;;16.40;8.83;;;11.80;99.90;;;;;;5161816;27;20173;-81
2021/05/13 02:20:57;;;;;;;11.90;9.53;;;11.80;99.90;;;;;;5158852;27;20503;-82
2021/05/13 02:23:23;;;;;;;15.60;10.10;;;11.70;99.90;;;;;;5109101;28;20429;-82
2021/05/13 02:25:50;;;;;;;14.00;10.53;;;11.70;99.90;;;;;;5132560;27;20219;-83
2021/05/13 02:28:17;;;;;;;14.47;9.47;;;11.70;99.90;;;;;;5155729;27;20392;-82
2021/05/13 02:30:43;;;;;;;10.20;9.00;;;11.60;99.90;;;;;;5155215;27;20442;-82
2021/05/13 02:33:10;;;;;;;16.23;10.23;;;11.60;99.90;;;;;;5154991;27;20432;-82
2021/05/13 02:35:35;;;;;;;12.60;8.80;;;11.60;99.90;;;;;;5155145;27;20383;-83
2021/05/13 02:38:01;;;;;;;11.87;9.20;;;11.60;99.90;;;;;;5154988;27;20392;-82
2021/05/13 02:40:27;;;;;;;11.90;9.40;;;11.60;99.90;;;;;;5154865;27;20183;-82
2021/05/13 02:42:53;;;;;;;11.70;9.80;;;11.60;99.90;;;;;;5154240;27;20154;-81
2021/05/13 02:45:19;;;;;;;13.27;9.37;;;11.50;99.90;;;;;;5154337;27;20450;-82
2021/05/13 02:47:45;;;;;;;12.30;10.90;;;11.40;99.90;;;;;;5154269;27;20387;-82
2021/05/13 02:50:13;;;;;;;12.10;10.83;;;11.50;99.90;;;;;;5154358;27;20237;-82
2021/05/13 02:52:39;;;;;;;13.20;10.40;;;11.60;99.90;;;;;;5154402;27;20294;-82
2021/05/13 02:55:07;;;;;;;10.77;8.30;;;11.60;99.90;;;;;;5154394;27;20403;-83
2021/05/13 02:57:33;;;;;;;12.63;9.87;;;11.60;99.90;;;;;;5136276;27;20224;-82
2021/05/13 03:00:15;;;;;;;11.83;9.70;;;11.60;99.90;;;;;;5154383;27;20474;-82
2021/05/13 03:02:41;;;;;;;10.73;9.47;;;11.60;99.90;;;;;;5154399;27;20391;-83
2021/05/13 03:05:08;;;;;;;11.63;8.40;;;11.60;99.90;;;;;;5136377;27;20420;-83
2021/05/13 03:07:39;;;;;;;11.77;10.17;;;11.50;99.90;;;;;;5154723;27;20434;-83
2021/05/13 03:10:14;;;;;;;13.13;10.50;;;11.50;99.90;;;;;;5153697;27;20416;-82
2021/05/13 03:12:41;;;;;;;13.00;9.77;;;11.60;99.90;;;;;;5150815;27;20411;-83
2021/05/13 03:15:08;;;;;;;13.90;10.50;;;11.60;99.90;;;;;;5148169;27;20387;-82
2021/05/13 03:17:33;;;;;;;13.50;10.90;;;11.60;99.90;;;;;;5147330;27;20428;-82
2021/05/13 03:20:00;;;;;;;9.60;8.60;;;11.60;99.90;;;;;;5154312;27;20562;-82
2021/05/13 03:22:26;;;;;;;15.53;10.77;;;11.70;99.90;;;;;;5152948;27;20306;-82
2021/05/13 03:24:55;;;;;;;19.30;9.60;;;11.60;99.90;;;;;;5155845;27;20395;-82
2021/05/13 03:27:42;;;;;;;11.47;9.23;;;11.60;99.90;;;;;;5134574;27;20780;-81
2021/05/13 03:30:08;;;;;;;11.67;10.43;;;11.60;99.90;;;;;;5152274;27;20434;-81
2021/05/13 03:32:34;;;;;;;12.07;9.30;;;11.70;99.90;;;;;;5153694;27;20451;-82
2021/05/13 03:35:00;;;;;;;13.33;10.17;;;11.60;99.90;;;;;;5152935;27;20387;-82
2021/05/13 03:37:27;;;;;;;12.30;9.60;;;11.60;99.90;;;;;;5153340;27;20196;-81
2021/05/13 03:39:56;;;;;;;13.87;9.90;;;11.70;99.90;;;;;;5149723;27;20196;-82
2021/05/13 03:42:22;;;;;;;13.70;10.30;;;11.70;99.90;;;;;;5135040;27;20390;-82
2021/05/13 03:44:49;;;;;;;16.30;10.43;;;11.70;99.90;;;;;;5141983;27;20558;-82
2021/05/13 03:47:15;;;;;;;19.93;12.27;;;11.70;99.90;;;;;;5140912;27;20260;-83
2021/05/13 03:49:41;;;;;;;11.53;10.33;;;11.70;99.90;;;;;;5141379;27;20435;-82
2021/05/13 03:52:07;;;;;;;12.10;10.80;;;11.70;99.90;;;;;;5141649;27;20625;-83
2021/05/13 03:54:33;;;;;;;10.73;9.23;;;11.70;99.90;;;;;;5141096;27;20398;-82
2021/05/13 03:56:59;;;;;;;13.40;11.07;;;11.70;99.90;;;;;;5140946;27;20391;-83
2021/05/13 03:59:25;;;;;;;10.90;9.00;;;11.70;99.90;;;;;;5097322;28;20518;-82
2021/05/13 04:04:27;;;;;;;11.00;9.07;;;11.80;99.90;;;;;;5082618;28;20221;-83
2021/05/13 04:06:53;;;;;;;13.73;10.70;;;11.80;99.90;;;;;;5098016;28;20385;-83
2021/05/13 04:09:19;;;;;;;12.23;10.57;;;11.80;99.90;;;;;;5097482;28;20296;-82
2021/05/13 04:11:45;;;;;;;13.03;10.47;;;11.80;99.90;;;;;;5087619;28;20424;-83
2021/05/13 04:14:10;;;;;;;10.07;8.90;;;11.80;99.90;;;;;;5108248;28;20269;-83
2021/05/13 04:16:40;;;;;;;18.63;9.80;;;11.80;99.90;;;;;;5106103;28;20163;-83
2021/05/13 04:19:06;;;;;;;18.40;10.53;;;11.70;99.90;;;;;;5086612;28;20226;-82
2021/05/13 04:21:32;;;;;;;12.83;9.30;;;11.80;99.90;;;;;;5102741;28;20429;-82
2021/05/13 04:23:59;;;;;;;10.53;9.43;;;11.70;99.90;;;;;;5103864;28;20457;-82
2021/05/13 04:26:24;;;;;;;12.47;9.33;;;11.70;99.90;;;;;;5103360;28;20388;-83
2021/05/13 04:28:50;;;;;;;11.20;9.77;;;11.70;99.90;;;;;;5103643;28;20422;-83
2021/05/13 04:31:16;;;;;;;12.27;9.57;;;11.70;99.90;;;;;;5141143;27;20192;-82
2021/05/13 04:33:42;;;;;;;14.00;9.40;;;11.80;99.90;;;;;;5146660;27;20399;-82
2021/05/13 04:36:09;;;;;;;13.37;9.83;;;11.70;99.90;;;;;;5146573;27;20984;-82
2021/05/13 04:38:35;;;;;;;10.67;9.57;;;11.80;99.90;;;;;;5146189;27;20390;-83
2021/05/13 04:41:01;;;;;;;11.40;8.40;;;11.70;99.90;;;;;;5146378;27;20840;-82
2021/05/13 04:43:41;;;;;;;9.60;8.60;;;11.80;99.90;;;;;;5146599;27;20455;-82
2021/05/13 04:46:08;;;;;;;9.17;8.10;;;11.80;99.90;;;;;;5146754;27;20420;-83
2021/05/13 04:51:10;;;;;;;9.03;8.23;;;11.80;99.90;;;;;;5146787;27;20414;-83
2021/05/13 04:53:36;;;;;;;9.73;8.73;;;11.70;99.90;;;;;;5146226;27;20391;-82
2021/05/13 04:56:02;;;;;;;12.43;7.07;;;11.70;99.90;;;;;;5146073;27;20166;-82
2021/05/13 04:58:27;;;;;;;9.73;8.73;;;11.70;99.90;;;;;;5146470;27;20157;-82
2021/05/13 05:00:53;;;;;;;9.00;8.20;;;11.80;99.90;;;;;;5146622;27;20242;-82
2021/05/13 05:03:19;;;;;;;10.73;9.00;;;11.90;99.90;;;;;;5147100;27;20206;-83
2021/05/13 05:05:45;;;;;;;11.30;9.60;;;11.60;99.90;;;;;;5128748;27;20153;-82
2021/05/13 05:08:10;;;;;;;13.10;8.73;;;11.60;99.90;;;;;;5149281;27;20188;-82
2021/05/13 05:10:36;;;;;;;8.90;7.93;;;11.70;99.90;;;;;;5147734;27;20173;-82
2021/05/13 05:13:02;;;;;;;8.20;7.40;;;11.80;99.90;;;;;;5146514;27;20236;-82
2021/05/13 05:15:28;;;;;;;8.30;7.40;;;11.90;99.90;;;;;;5145892;27;20157;-82
2021/05/13 05:17:54;;;;;;;8.97;8.07;;;11.90;99.90;;;;;;5146358;27;20172;-82
2021/05/13 05:20:19;;;;;;;7.00;6.30;;;12.00;99.90;;;;;;5139483;27;20208;-82
2021/05/13 05:22:45;;;;;;;12.40;6.67;;;12.10;99.90;;;;;;5157724;27;20508;-83
2021/05/13 05:25:11;;;;;;;7.20;6.17;;;12.00;99.90;;;;;;5143145;27;20605;-83
2021/05/13 05:27:37;;;;;;;9.67;7.57;;;12.10;99.90;;;;;;5142681;27;20566;-83
2021/05/13 05:30:04;;;;;;;10.60;6.80;;;11.90;99.90;;;;;;5142956;27;20391;-82
2021/05/13 05:32:30;;;;;;;8.73;7.27;;;12.00;99.90;;;;;;5142903;27;20508;-83
2021/05/13 05:34:56;;;;;;;8.00;7.23;;;12.10;99.90;;;;;;5142121;27;20470;-82
2021/05/13 05:37:22;;;;;;;8.33;7.50;;;12.10;99.90;;;;;;5142197;27;20636;-83
2021/05/13 05:39:47;;;;;;;8.73;7.93;;;12.20;99.90;;;;;;5142248;27;20247;-83
2021/05/13 05:42:13;;;;;;;7.80;7.03;;;12.20;99.90;;;;;;5142322;27;20182;-82
2021/05/13 05:44:39;;;;;;;9.07;8.13;;;12.20;99.90;;;;;;5141912;27;20221;-83
2021/05/13 05:47:05;;;;;;;8.30;6.97;;;12.30;99.90;;;;;;5141921;27;20188;-82
2021/05/13 05:49:31;;;;;;;14.83;7.87;;;12.30;99.90;;;;;;5142338;27;20164;-82
2021/05/13 05:51:56;;;;;;;9.13;7.90;;;12.40;99.90;;;;;;5142684;27;20268;-83
2021/05/13 05:54:22;;;;;;;9.17;8.20;;;12.40;99.90;;;;;;5141846;27;20185;-83
2021/05/13 05:56:48;;;;;;;9.57;8.43;;;12.20;99.90;;;;;;5142259;27;20188;-83
2021/05/13 05:59:14;;;;;;;13.80;9.50;;;12.30;99.90;;;;;;5141757;27;20200;-83
2021/05/13 06:01:40;;;;;;;14.03;10.03;;;12.20;99.90;;;;;;5142100;27;20158;-83
2021/05/13 06:04:08;;;;;;;10.83;8.97;;;12.20;99.90;;;;;;5141950;27;20193;-83
2021/05/13 06:06:33;;;;;;;11.73;8.77;;;12.30;99.90;;;;;;5141645;27;20391;-83
2021/05/13 06:08:59;;;;;;;9.50;8.60;;;12.40;99.90;;;;;;5141416;27;20812;-83
2021/05/13 06:11:25;;;;;;;9.67;8.40;;;12.30;99.90;;;;;;5142124;27;20218;-83
2021/05/13 06:13:51;;;;;;;10.17;9.00;;;12.40;99.90;;;;;;5142268;27;20237;-83
2021/05/13 06:16:16;;;;;;;8.27;6.97;;;12.40;99.90;;;;;;5123419;27;20194;-83
2021/05/13 06:18:51;;;;;;;11.53;8.97;;;12.50;99.90;;;;;;5141622;27;20519;-83
2021/05/13 06:21:17;;;;;;;9.27;8.10;;;12.50;99.90;;;;;;5141901;27;20177;-83
2021/05/13 06:23:48;;;;;;;11.33;10.20;;;12.50;99.90;;;;;;5140924;27;20550;-83
2021/05/13 06:26:33;;;;;;;8.70;7.80;;;12.40;99.90;;;;;;5141865;27;20507;-83
2021/05/13 06:28:59;;;;;;;9.63;8.73;;;12.50;99.90;;;;;;5145779;27;20474;-83
2021/05/13 06:31:25;;;;;;;9.10;8.30;;;12.40;99.90;;;;;;5146356;27;20384;-83
2021/05/13 06:33:51;;;;;;;10.13;9.10;;;12.60;99.90;;;;;;5142274;27;20444;-83
2021/05/13 06:36:17;;;;;;;9.70;7.90;;;12.60;99.90;;;;;;5143537;27;20396;-83
2021/05/13 06:38:44;;;;;;;8.47;7.57;;;12.50;99.90;;;;;;5145086;27;20162;-82
2021/05/13 06:41:11;;;;;;;10.63;9.03;;;12.60;99.90;;;;;;5157690;27;20403;-82
2021/05/13 06:43:37;;;;;;;12.10;8.70;;;12.50;99.90;;;;;;5160802;27;20400;-82
2021/05/13 06:46:04;;;;;;;11.37;8.03;;;12.60;99.90;;;;;;5160713;27;20439;-82
2021/05/13 06:48:33;;;;;;;7.87;6.90;;;12.70;99.90;;;;;;5157139;27;20451;-83
2021/05/13 06:50:59;;;;;;;7.50;6.73;;;12.90;99.90;;;;;;5142608;27;20477;-82
2021/05/13 06:53:25;;;;;;;8.07;6.90;;;12.90;99.90;;;;;;5141899;27;20455;-83
2021/05/13 06:55:52;;;;;;;7.70;7.10;;;13.00;99.90;;;;;;5141611;27;20403;-83
2021/05/13 06:58:20;;;;;;;7.33;6.60;;;13.00;99.90;;;;;;5141589;27;20244;-82
2021/05/13 07:00:48;;;;;;;7.57;6.87;;;13.10;99.90;;;;;;5122200;27;20458;-83
2021/05/13 07:03:15;;;;;;;8.03;7.23;;;13.00;99.90;;;;;;5141786;27;20402;-83
2021/05/13 07:05:42;;;;;;;10.67;7.70;;;13.00;99.90;;;;;;5141158;27;20394;-83
2021/05/13 07:08:09;;;;;;;9.33;7.63;;;13.20;99.90;;;;;;5140772;27;20426;-82
2021/05/13 07:10:37;;;;;;;8.00;7.27;;;13.20;99.90;;;;;;5141845;27;20399;-82
2021/05/13 07:13:04;;;;;;;7.70;6.40;;;13.20;99.90;;;;;;5141049;27;20396;-83
2021/05/13 07:15:31;;;;;;;8.30;7.50;;;13.20;99.90;;;;;;5141085;27;20392;-82
2021/05/13 07:17:57;;;;;;;6.40;5.70;;;13.30;99.90;;;;;;5140958;27;20391;-83
2021/05/13 07:20:23;;;;;;;9.23;6.07;;;13.20;99.90;;;;;;5141573;27;20514;-83
2021/05/13 07:22:50;;;;;;;8.43;6.20;;;13.20;99.90;;;;;;5141381;27;20440;-83
2021/05/13 07:25:17;;;;;;;9.50;7.53;;;13.10;99.90;;;;;;5143415;27;20395;-83
2021/05/13 07:27:44;;;;;;;8.27;7.47;;;13.20;99.90;;;;;;5143328;27;20867;-83
2021/05/13 07:30:11;;;;;;;6.93;6.00;;;13.10;99.90;;;;;;5123758;27;20491;-83
2021/05/13 07:32:37;;;;;;;7.50;6.83;;;13.10;99.90;;;;;;5141471;27;20395;-83
2021/05/13 07:35:04;;;;;;;7.20;5.83;;;13.20;99.90;;;;;;5140721;27;20451;-83
2021/05/13 07:37:30;;;;;;;10.63;6.90;;;13.20;99.90;;;;;;5140707;27;20420;-83
2021/05/13 07:39:56;;;;;;;7.97;7.17;;;13.20;99.90;;;;;;5140648;27;20451;-83
2021/05/13 07:42:22;;;;;;;8.87;6.73;;;13.10;99.90;;;;;;5140215;27;20161;-83
2021/05/13 07:44:48;;;;;;;7.23;6.43;;;13.10;99.90;;;;;;5121116;28;20225;-83
2021/05/13 07:47:14;;;;;;;6.73;6.03;;;13.20;99.90;;;;;;5140643;27;20183;-83
2021/05/13 07:49:40;;;;;;;7.43;6.73;;;13.30;99.90;;;;;;5140167;27;20391;-83
2021/05/13 07:52:06;;;;;;;6.43;5.93;;;13.00;99.90;;;;;;5140300;27;20551;-83
2021/05/13 07:54:32;;;;;;;7.50;6.80;;;13.00;99.90;;;;;;5140615;27;20409;-83
2021/05/13 07:56:58;;;;;;;8.03;6.60;;;13.20;99.90;;;;;;5140131;27;20175;-83
2021/05/13 07:59:24;;;;;;;7.10;5.70;;;13.20;99.90;;;;;;5140155;27;20185;-83
2021/05/13 08:01:50;;;;;;;11.07;6.07;;;13.10;99.90;;;;;;5113097;28;20184;-82
2021/05/13 08:04:16;;;;;;;8.23;5.90;;;13.20;99.90;;;;;;5117500;28;20808;-82
2021/05/13 08:06:42;;;;;;;7.20;6.13;;;13.20;99.90;;;;;;5118917;28;20178;-82
2021/05/13 08:09:08;;;;;;;8.50;6.83;;;13.30;99.90;;;;;;5101252;28;20201;-82
2021/05/13 08:11:34;;;;;;;8.37;7.17;;;13.40;99.90;;;;;;5118257;28;20408;-83
2021/05/13 08:14:00;;;;;;;7.93;7.13;;;13.50;99.90;;;;;;5117248;28;20459;-83
2021/05/13 08:16:26;;;;;;;10.40;7.23;;;13.50;99.90;;;;;;5117220;28;20416;-83
2021/05/13 08:18:52;;;;;;;9.13;6.67;;;13.40;99.90;;;;;;5117642;28;20198;-82
2021/05/13 08:21:18;;;;;;;9.53;7.23;;;13.40;99.90;;;;;;5100821;28;20224;-82
2021/05/13 08:23:44;;;;;;;7.60;6.90;;;13.50;99.90;;;;;;5100057;28;20692;-82
2021/05/13 08:26:10;;;;;;;7.67;6.87;;;13.40;99.90;;;;;;5117579;28;20393;-83
2021/05/13 08:28:37;;;;;;;6.57;5.97;;;13.40;99.90;;;;;;5117642;28;20312;-83
2021/05/13 08:31:03;;;;;;;6.87;6.20;;;13.40;99.90;;;;;;5117275;28;20163;-83
2021/05/13 08:33:28;;;;;;;7.57;6.87;;;13.40;99.90;;;;;;5132371;28;20758;-82
2021/05/13 08:35:54;;;;;;;9.13;8.23;;;13.50;99.90;;;;;;5145299;28;20165;-82
2021/05/13 08:38:20;;;;;;;8.70;7.40;;;13.60;99.90;;;;;;5144342;28;20164;-82
2021/05/13 08:40:46;;;;;;;10.13;9.13;;;13.70;99.90;;;;;;5147342;28;20209;-82
2021/05/13 08:43:28;;;;;;;8.07;7.27;;;13.70;99.90;;;;;;5145768;28;20164;-83
2021/05/13 08:45:58;;;;;;;11.00;8.90;;;13.70;99.90;;;;;;5140129;28;20265;-84
2021/05/13 08:48:28;;;;;;;9.17;8.37;;;13.80;99.90;;;;;;5140384;28;20394;-82
2021/05/13 08:50:56;;;;;;;8.60;7.80;;;13.80;99.90;;;;;;5139937;28;20815;-82
2021/05/13 08:53:22;;;;;;;10.00;7.60;;;13.80;99.90;;;;;;5122293;28;20399;-82
2021/05/13 08:55:48;;;;;;;6.20;5.60;;;13.90;99.90;;;;;;5121594;27;20398;-82
2021/05/13 08:58:14;;;;;;;7.73;6.93;;;14.00;99.90;;;;;;5144372;27;20395;-82
2021/05/13 09:00:49;;;;;;;9.27;7.10;;;13.90;99.90;;;;;;5143498;27;20189;-83
2021/05/13 09:03:37;;;;;;;11.23;6.50;;;14.00;99.90;;;;;;5109971;27;20189;-82
2021/05/13 09:06:04;;;;;;;8.10;6.80;;;14.00;99.90;;;;;;5143523;27;20684;-82
2021/05/13 09:08:30;;;;;;;8.60;7.70;;;13.90;99.90;;;;;;5125482;27;20437;-82
2021/05/13 09:11:10;;;;;;;9.33;7.40;;;13.70;99.90;;;;;;5143548;27;20819;-82
2021/05/13 09:13:36;;;;;;;9.23;8.20;;;13.90;99.90;;;;;;5126304;27;20788;-84
2021/05/13 09:16:25;;;;;;;8.67;6.20;;;14.00;99.90;;;;;;5145214;27;20403;-82
2021/05/13 09:18:51;;;;;;;9.57;7.57;;;14.10;99.90;;;;;;5155928;27;20407;-84
2021/05/13 09:21:17;;;;;;;6.90;6.30;;;14.10;99.90;;;;;;5157196;27;20402;-82
2021/05/13 09:23:43;;;;;;;8.67;7.90;;;14.10;99.90;;;;;;5151826;27;20422;-84
2021/05/13 09:26:12;;;;;;;14.40;7.10;;;14.00;99.90;;;;;;5144525;27;20161;-84
2021/05/13 09:28:42;;;;;;;9.90;8.90;;;14.10;99.90;;;;;;5144213;27;20176;-83
2021/05/13 09:31:08;;;;;;;9.17;7.97;;;14.10;99.90;;;;;;5143926;27;20455;-84
2021/05/13 09:33:41;;;;;;;9.40;7.50;;;14.20;99.90;;;;;;5143031;27;20462;-82
2021/05/13 09:36:27;;;;;;;7.40;6.17;;;14.30;99.90;;;;;;5144441;27;20470;-83
2021/05/13 09:38:53;;;;;;;6.47;5.80;;;14.30;99.90;;;;;;5143425;27;20552;-82
2021/05/13 09:41:39;;;;;;;9.80;7.57;;;14.20;99.90;;;;;;5107583;28;20443;-82
2021/05/13 09:44:41;;;;;;;6.40;5.80;;;14.10;99.90;;;;;;5103636;28;20460;-81
2021/05/13 09:47:27;;;;;;;7.70;7.00;;;14.10;99.90;;;;;;5120357;28;20150;-82
2021/05/13 09:49:56;;;;;;;8.80;7.77;;;14.30;99.90;;;;;;5120276;28;20380;-81
2021/05/13 09:52:43;;;;;;;9.00;7.10;;;14.30;99.90;;;;;;5120102;28;20403;-84
2021/05/13 09:55:12;;;;;;;6.90;6.20;;;14.30;99.90;;;;;;5120296;28;20385;-83
2021/05/13 09:57:40;;;;;;;8.53;7.40;;;14.40;99.90;;;;;;5120364;28;20420;-82
2021/05/13 10:00:07;;;;;;;7.80;6.33;;;14.40;99.90;;;;;;5120266;28;20443;-83
2021/05/13 10:02:35;;;;;;;7.17;6.47;;;13.80;99.90;;;;;;5103831;28;20407;-82
2021/05/13 10:05:02;;;;;;;8.83;7.93;;;14.00;99.90;;;;;;5104223;28;20392;-83
2021/05/13 10:07:28;;;;;;;8.77;6.87;;;14.30;99.90;;;;;;5103291;28;20530;-83
2021/05/13 10:09:54;;;;;;;9.67;7.20;;;14.60;99.90;;;;;;5119906;28;20427;-82
2021/05/13 10:12:20;;;;;;;9.73;6.60;;;14.80;99.90;;;;;;5095991;27;20184;-83
2021/05/13 10:14:50;;;;;;;7.40;6.70;;;14.90;99.90;;;;;;5143007;27;20470;-83
2021/05/13 10:17:17;;;;;;;7.37;5.80;;;15.00;99.90;;;;;;5123987;27;20395;-82
2021/05/13 10:19:49;;;;;;;6.57;5.93;;;15.10;99.90;;;;;;5142640;27;20487;-83
2021/05/13 10:22:15;;;;;;;6.50;5.90;;;15.00;99.90;;;;;;5142462;27;20431;-82
2021/05/13 10:24:45;;;;;;;7.50;6.70;;;14.90;99.90;;;;;;5142781;27;20440;-83
2021/05/13 10:27:17;;;;;;;7.07;6.40;;;14.70;99.90;;;;;;5141707;27;20403;-83
2021/05/13 10:29:43;;;;;;;6.67;6.17;;;14.40;99.90;;;;;;5142119;27;20447;-83
2021/05/13 10:32:18;;;;;;;6.43;5.83;;;14.70;99.90;;;;;;5124226;27;20420;-83
2021/05/13 10:34:47;;;;;;;5.40;4.90;;;15.10;99.90;;;;;;5143002;27;20397;-83
2021/05/13 10:37:24;;;;;;;6.50;5.37;;;14.80;99.90;;;;;;5144984;27;20396;-83
2021/05/13 10:43:05;;;;;;;5.03;4.60;;;15.10;99.90;;;;;;5141837;27;20383;-82
2021/05/13 10:45:37;;;;;;;7.00;6.30;;;15.30;99.90;;;;;;5141952;27;20457;-82
2021/05/13 10:48:17;;;;;;;6.70;6.10;;;15.70;99.90;;;;;;5124055;27;20379;-82
2021/05/13 10:50:49;;;;;;;6.50;5.77;;;15.60;99.90;;;;;;5123140;27;20408;-83
2021/05/13 10:53:48;;;;;;;7.17;6.20;;;14.90;99.90;;;;;;5141381;27;20439;-84
2021/05/13 10:56:23;;;;;;;7.60;5.00;;;15.20;99.90;;;;;;5123644;27;20778;-83
2021/05/13 10:59:14;;;;;;;6.33;5.03;;;16.20;99.90;;;;;;5141016;27;20390;-83
2021/05/13 11:01:49;;;;;;;5.57;4.50;;;16.60;99.90;;;;;;5141321;27;20387;-82
2021/05/13 11:04:40;;;;;;;6.00;5.20;;;16.40;99.90;;;;;;5140011;27;20406;-84
2021/05/13 11:07:28;;;;;;;7.07;5.57;;;16.50;99.90;;;;;;5089593;27;20154;-84
2021/05/13 11:09:57;;;;;;;7.90;5.70;;;16.90;99.90;;;;;;5124020;27;20378;-84
2021/05/13 11:12:38;;;;;;;9.33;4.80;;;17.10;99.90;;;;;;5141583;27;20478;-82
2021/05/13 11:15:11;;;;;;;7.10;4.63;;;17.40;99.90;;;;;;5141352;27;20387;-82
2021/05/13 11:18:03;;;;;;;6.87;4.53;;;17.70;99.90;;;;;;5141882;27;20383;-82
2021/05/13 11:20:31;;;;;;;5.27;4.77;;;18.00;99.90;;;;;;5110464;27;20438;-82
2021/05/13 11:23:02;;;;;;;8.40;4.73;;;18.20;99.90;;;;;;5143472;27;20387;-82
2021/05/13 11:25:43;;;;;;;5.97;5.37;;;18.40;99.90;;;;;;5154519;27;20402;-82
2021/05/13 11:28:30;;;;;;;5.53;4.80;;;18.30;99.90;;;;;;5157608;27;20402;-82
2021/05/13 11:31:14;;;;;;;6.57;4.60;;;18.60;99.90;;;;;;5158549;27;20375;-83
2021/05/13 11:33:47;;;;;;;5.67;4.30;;;18.70;99.90;;;;;;5150947;27;20475;-83
2021/05/13 11:36:17;;;;;;;5.77;3.87;;;18.60;99.90;;;;;;5126648;27;20388;-84
2021/05/13 11:38:44;;;;;;;5.27;4.87;;;18.70;99.90;;;;;;5125202;27;20514;-81
2021/05/13 11:41:10;;;;;;;3.77;3.47;;;19.00;99.90;;;;;;5142288;27;20391;-82
2021/05/13 11:43:39;;;;;;;5.00;3.93;;;19.00;99.90;;;;;;5141948;27;20882;-82
2021/05/13 11:46:09;;;;;;;4.60;4.17;;;18.40;99.90;;;;;;5141437;27;20217;-83
2021/05/13 11:48:41;;;;;;;5.83;3.97;;;18.40;99.90;;;;;;5123451;27;20406;-83
2021/05/13 11:51:14;;;;;;;4.53;3.77;;;18.80;99.90;;;;;;5141151;27;20395;-83
2021/05/13 11:53:44;;;;;;;4.93;3.70;;;18.80;99.90;;;;;;5112912;28;20412;-83
2021/05/13 11:56:24;;;;;;;4.40;3.23;;;18.80;99.90;;;;;;5105592;28;20419;-83
2021/05/13 11:58:52;;;;;;;3.17;2.93;;;18.80;99.90;;;;;;5051477;28;20421;-83
2021/05/13 12:01:23;;;;;;;8.87;3.60;;;18.70;99.90;;;;;;5080295;28;20393;-83
2021/05/13 12:03:57;;;;;;;5.37;3.70;;;18.70;99.90;;;;;;5060682;28;20409;-83
2021/05/13 12:06:23;;;;;;;4.10;3.80;;;18.80;99.90;;;;;;5060292;28;20389;-85
2021/05/13 12:08:49;;;;;;;6.00;3.83;;;18.50;99.90;;;;;;5077179;28;20475;-82
2021/05/13 12:11:24;;;;;;;4.30;3.20;;;18.00;99.90;;;;;;5076912;28;20489;-82
2021/05/13 12:13:55;;;;;;;5.60;4.40;;;18.30;99.90;;;;;;5060012;28;20322;-82
2021/05/13 12:16:23;;;;;;;4.20;3.80;;;17.50;99.90;;;;;;5076416;28;20435;-82
2021/05/13 12:18:53;;;;;;;3.80;3.50;;;17.60;99.90;;;;;;5076578;28;20907;-82
2021/05/13 12:21:19;;;;;;;5.70;4.10;;;17.40;99.90;;;;;;5075946;28;20389;-82
2021/05/13 12:23:47;;;;;;;4.20;3.90;;;17.70;99.90;;;;;;5076596;28;20755;-83
2021/05/13 12:26:20;;;;;;;4.27;3.93;;;17.70;99.90;;;;;;5078503;28;20472;-83
2021/05/13 12:28:46;;;;;;;7.97;3.90;;;17.80;99.90;;;;;;5103019;28;20460;-83
2021/05/13 12:31:36;;;;;;;4.90;3.77;;;17.10;99.90;;;;;;5103978;27;20451;-83
2021/05/13 12:34:05;;;;;;;3.97;3.00;;;17.20;99.90;;;;;;5143382;27;20403;-83
2021/05/13 12:36:33;;;;;;;5.30;3.83;;;16.70;99.90;;;;;;5144014;27;20676;-83
2021/05/13 12:38:59;;;;;;;5.10;4.60;;;17.20;99.90;;;;;;5143621;27;20486;-83
2021/05/13 12:41:27;;;;;;;5.90;4.83;;;17.50;99.90;;;;;;5143358;27;20532;-82
2021/05/13 12:44:08;;;;;;;4.37;3.97;;;17.30;99.90;;;;;;5144041;27;20399;-83
2021/05/13 12:46:44;;;;;;;5.60;4.97;;;17.40;99.90;;;;;;5144007;27;20433;-83
2021/05/13 12:49:29;;;;;;;5.20;4.70;;;17.30;99.90;;;;;;5125160;27;20485;-83
2021/05/13 12:52:02;;;;;;;8.60;4.33;;;17.30;99.90;;;;;;5144016;27;20416;-83
2021/05/13 12:54:28;;;;;;;7.13;4.40;;;17.30;99.90;;;;;;5144160;27;20379;-83
2021/05/13 12:57:08;;;;;;;4.33;3.93;;;17.20;99.90;;;;;;5144116;27;20739;-83
2021/05/13 12:59:34;;;;;;;5.27;4.77;;;17.20;99.90;;;;;;5142863;27;20486;-83